sensor_id;sensor_type;location;lat;lon;timestamp;P1;durP1;ratioP1;P2;durP2;ratioP2
25868;SDS011;13688;53.154;18.136;2024-02-26T00:03:39;45.43;;;25.30;;
25868;SDS011;13688;53.154;18.136;2024-02-26T00:09:03;45.92;;;24.77;;
25868;SDS011;13688;53.154;18.136;2024-02-26T00:14:26;44.27;;;25.20;;
25868;SDS011;13688;53.154;18.136;2024-02-26T00:19:50;43.83;;;23.52;;
25868;SDS011;13688;53.154;18.136;2024-02-26T00:25:13;43.13;;;24.87;;
25868;SDS011;13688;53.154;18.136;2024-02-26T00:30:36;38.95;;;23.42;;
25868;SDS011;13688;53.154;18.136;2024-02-26T00:35:59;43.30;;;22.70;;
25868;SDS011;13688;53.154;18.136;2024-02-26T00:41:22;41.95;;;23.77;;
25868;SDS011;13688;53.154;18.136;2024-02-26T00:46:48;45.63;;;23.75;;
25868;SDS011;13688;53.154;18.136;2024-02-26T00:52:11;44.40;;;23.65;;
25868;SDS011;13688;53.154;18.136;2024-02-26T00:57:33;38.35;;;21.65;;
25868;SDS011;13688;53.154;18.136;2024-02-26T01:02:56;41.45;;;22.75;;
25868;SDS011;13688;53.154;18.136;2024-02-26T01:08:18;37.65;;;21.57;;
25868;SDS011;13688;53.154;18.136;2024-02-26T01:13:42;39.90;;;22.07;;
25868;SDS011;13688;53.154;18.136;2024-02-26T01:19:04;44.40;;;23.77;;
25868;SDS011;13688;53.154;18.136;2024-02-26T01:24:27;43.52;;;23.40;;
25868;SDS011;13688;53.154;18.136;2024-02-26T01:29:49;46.23;;;26.50;;
25868;SDS011;13688;53.154;18.136;2024-02-26T01:35:13;42.05;;;25.10;;
25868;SDS011;13688;53.154;18.136;2024-02-26T01:40:36;45.33;;;24.87;;
25868;SDS011;13688;53.154;18.136;2024-02-26T01:45:59;39.75;;;23.40;;
25868;SDS011;13688;53.154;18.136;2024-02-26T01:51:23;39.23;;;23.07;;
25868;SDS011;13688;53.154;18.136;2024-02-26T01:56:47;41.68;;;22.30;;
25868;SDS011;13688;53.154;18.136;2024-02-26T02:02:12;45.30;;;25.25;;
25868;SDS011;13688;53.154;18.136;2024-02-26T02:07:35;40.70;;;23.52;;
25868;SDS011;13688;53.154;18.136;2024-02-26T02:13:00;43.17;;;23.87;;
25868;SDS011;13688;53.154;18.136;2024-02-26T02:18:22;43.35;;;22.70;;
25868;SDS011;13688;53.154;18.136;2024-02-26T02:23:45;42.43;;;23.18;;
25868;SDS011;13688;53.154;18.136;2024-02-26T02:29:07;39.80;;;22.80;;
25868;SDS011;13688;53.154;18.136;2024-02-26T02:34:31;39.90;;;23.65;;
25868;SDS011;13688;53.154;18.136;2024-02-26T02:39:54;41.63;;;21.87;;
25868;SDS011;13688;53.154;18.136;2024-02-26T02:45:18;49.05;;;26.17;;
25868;SDS011;13688;53.154;18.136;2024-02-26T02:50:40;51.20;;;25.85;;
25868;SDS011;13688;53.154;18.136;2024-02-26T02:56:03;45.67;;;25.77;;
25868;SDS011;13688;53.154;18.136;2024-02-26T03:01:25;43.60;;;25.60;;
25868;SDS011;13688;53.154;18.136;2024-02-26T03:06:48;45.65;;;25.50;;
25868;SDS011;13688;53.154;18.136;2024-02-26T03:12:10;41.60;;;23.73;;
25868;SDS011;13688;53.154;18.136;2024-02-26T03:17:34;46.50;;;25.15;;
25868;SDS011;13688;53.154;18.136;2024-02-26T03:22:56;40.58;;;24.07;;
25868;SDS011;13688;53.154;18.136;2024-02-26T03:28:21;42.80;;;24.45;;
25868;SDS011;13688;53.154;18.136;2024-02-26T03:33:43;42.45;;;22.87;;
25868;SDS011;13688;53.154;18.136;2024-02-26T03:39:06;47.58;;;25.02;;
25868;SDS011;13688;53.154;18.136;2024-02-26T03:44:29;77.92;;;29.90;;
25868;SDS011;13688;53.154;18.136;2024-02-26T03:49:51;78.22;;;33.78;;
25868;SDS011;13688;53.154;18.136;2024-02-26T03:55:14;115.82;;;34.10;;
25868;SDS011;13688;53.154;18.136;2024-02-26T04:00:37;51.35;;;26.85;;
25868;SDS011;13688;53.154;18.136;2024-02-26T04:05:59;60.43;;;25.08;;
25868;SDS011;13688;53.154;18.136;2024-02-26T04:11:24;44.73;;;24.72;;
25868;SDS011;13688;53.154;18.136;2024-02-26T04:16:47;34.50;;;22.22;;
25868;SDS011;13688;53.154;18.136;2024-02-26T04:22:10;42.67;;;24.75;;
25868;SDS011;13688;53.154;18.136;2024-02-26T04:27:33;43.23;;;23.98;;
25868;SDS011;13688;53.154;18.136;2024-02-26T04:32:55;39.10;;;23.20;;
25868;SDS011;13688;53.154;18.136;2024-02-26T04:38:18;54.83;;;24.87;;
25868;SDS011;13688;53.154;18.136;2024-02-26T04:43:40;36.90;;;22.60;;
25868;SDS011;13688;53.154;18.136;2024-02-26T04:49:03;36.93;;;22.27;;
25868;SDS011;13688;53.154;18.136;2024-02-26T04:54:25;36.98;;;21.33;;
25868;SDS011;13688;53.154;18.136;2024-02-26T04:59:48;36.23;;;22.32;;
25868;SDS011;13688;53.154;18.136;2024-02-26T05:05:10;32.13;;;20.55;;
25868;SDS011;13688;53.154;18.136;2024-02-26T05:10:33;37.25;;;19.98;;
25868;SDS011;13688;53.154;18.136;2024-02-26T05:15:56;30.50;;;21.05;;
25868;SDS011;13688;53.154;18.136;2024-02-26T05:21:18;33.40;;;20.55;;
25868;SDS011;13688;53.154;18.136;2024-02-26T05:26:41;36.88;;;20.88;;
25868;SDS011;13688;53.154;18.136;2024-02-26T05:32:04;34.67;;;20.92;;
25868;SDS011;13688;53.154;18.136;2024-02-26T05:37:27;33.95;;;20.17;;
25868;SDS011;13688;53.154;18.136;2024-02-26T05:42:50;34.48;;;18.77;;
25868;SDS011;13688;53.154;18.136;2024-02-26T05:48:12;33.18;;;21.07;;
25868;SDS011;13688;53.154;18.136;2024-02-26T05:53:36;31.20;;;19.90;;
25868;SDS011;13688;53.154;18.136;2024-02-26T05:58:58;37.05;;;20.92;;
25868;SDS011;13688;53.154;18.136;2024-02-26T06:04:21;33.38;;;18.25;;
25868;SDS011;13688;53.154;18.136;2024-02-26T06:09:44;31.42;;;19.27;;
25868;SDS011;13688;53.154;18.136;2024-02-26T06:15:08;31.60;;;20.48;;
25868;SDS011;13688;53.154;18.136;2024-02-26T06:20:31;29.10;;;19.27;;
25868;SDS011;13688;53.154;18.136;2024-02-26T06:25:53;35.43;;;22.37;;
25868;SDS011;13688;53.154;18.136;2024-02-26T06:31:16;35.73;;;22.45;;
25868;SDS011;13688;53.154;18.136;2024-02-26T06:36:39;35.73;;;20.90;;
25868;SDS011;13688;53.154;18.136;2024-02-26T06:42:01;35.50;;;21.25;;
25868;SDS011;13688;53.154;18.136;2024-02-26T06:47:24;34.75;;;20.35;;
25868;SDS011;13688;53.154;18.136;2024-02-26T06:52:47;33.55;;;19.85;;
25868;SDS011;13688;53.154;18.136;2024-02-26T06:58:11;35.45;;;20.65;;
25868;SDS011;13688;53.154;18.136;2024-02-26T07:03:34;35.33;;;21.68;;
25868;SDS011;13688;53.154;18.136;2024-02-26T07:08:57;32.90;;;20.37;;
25868;SDS011;13688;53.154;18.136;2024-02-26T07:14:19;39.55;;;22.27;;
25868;SDS011;13688;53.154;18.136;2024-02-26T07:19:42;33.58;;;20.72;;
25868;SDS011;13688;53.154;18.136;2024-02-26T07:25:06;32.05;;;21.15;;
25868;SDS011;13688;53.154;18.136;2024-02-26T07:30:28;33.95;;;20.82;;
25868;SDS011;13688;53.154;18.136;2024-02-26T07:35:51;35.48;;;22.07;;
25868;SDS011;13688;53.154;18.136;2024-02-26T07:41:14;37.58;;;21.77;;
25868;SDS011;13688;53.154;18.136;2024-02-26T07:46:37;26.65;;;18.12;;
25868;SDS011;13688;53.154;18.136;2024-02-26T07:51:59;34.88;;;20.72;;
25868;SDS011;13688;53.154;18.136;2024-02-26T07:57:21;35.85;;;21.25;;
25868;SDS011;13688;53.154;18.136;2024-02-26T08:02:44;35.70;;;21.00;;
25868;SDS011;13688;53.154;18.136;2024-02-26T08:08:07;36.73;;;22.50;;
25868;SDS011;13688;53.154;18.136;2024-02-26T08:13:30;37.98;;;21.57;;
25868;SDS011;13688;53.154;18.136;2024-02-26T08:18:52;37.83;;;22.42;;
25868;SDS011;13688;53.154;18.136;2024-02-26T08:24:17;38.50;;;22.13;;
25868;SDS011;13688;53.154;18.136;2024-02-26T08:29:39;40.12;;;23.32;;
25868;SDS011;13688;53.154;18.136;2024-02-26T08:35:02;45.25;;;25.60;;
25868;SDS011;13688;53.154;18.136;2024-02-26T08:40:25;46.50;;;25.75;;
25868;SDS011;13688;53.154;18.136;2024-02-26T08:45:48;48.45;;;26.65;;
25868;SDS011;13688;53.154;18.136;2024-02-26T08:51:10;42.33;;;27.10;;
25868;SDS011;13688;53.154;18.136;2024-02-26T08:56:33;47.73;;;27.13;;
25868;SDS011;13688;53.154;18.136;2024-02-26T09:01:56;51.70;;;30.12;;
25868;SDS011;13688;53.154;18.136;2024-02-26T09:07:18;52.48;;;31.00;;
25868;SDS011;13688;53.154;18.136;2024-02-26T09:12:41;52.58;;;30.88;;
25868;SDS011;13688;53.154;18.136;2024-02-26T09:18:04;54.53;;;31.57;;
25868;SDS011;13688;53.154;18.136;2024-02-26T09:23:27;53.70;;;33.45;;
25868;SDS011;13688;53.154;18.136;2024-02-26T09:28:49;53.35;;;31.50;;
25868;SDS011;13688;53.154;18.136;2024-02-26T09:34:12;57.33;;;31.48;;
25868;SDS011;13688;53.154;18.136;2024-02-26T09:39:35;50.40;;;31.30;;
25868;SDS011;13688;53.154;18.136;2024-02-26T09:45:00;49.53;;;30.02;;
25868;SDS011;13688;53.154;18.136;2024-02-26T09:50:26;58.63;;;33.38;;
25868;SDS011;13688;53.154;18.136;2024-02-26T09:55:49;60.95;;;34.27;;
25868;SDS011;13688;53.154;18.136;2024-02-26T10:01:13;72.65;;;37.40;;
25868;SDS011;13688;53.154;18.136;2024-02-26T10:06:38;65.08;;;35.60;;
25868;SDS011;13688;53.154;18.136;2024-02-26T10:12:04;68.78;;;36.30;;
25868;SDS011;13688;53.154;18.136;2024-02-26T10:17:27;57.33;;;36.23;;
25868;SDS011;13688;53.154;18.136;2024-02-26T10:22:50;58.52;;;35.17;;
25868;SDS011;13688;53.154;18.136;2024-02-26T10:28:13;63.33;;;34.35;;
25868;SDS011;13688;53.154;18.136;2024-02-26T10:33:37;61.48;;;33.92;;
25868;SDS011;13688;53.154;18.136;2024-02-26T10:39:05;63.05;;;37.45;;
25868;SDS011;13688;53.154;18.136;2024-02-26T10:44:30;60.12;;;36.63;;
25868;SDS011;13688;53.154;18.136;2024-02-26T10:49:55;62.15;;;36.83;;
25868;SDS011;13688;53.154;18.136;2024-02-26T10:55:20;63.15;;;35.23;;
25868;SDS011;13688;53.154;18.136;2024-02-26T11:00:45;72.22;;;42.70;;
25868;SDS011;13688;53.154;18.136;2024-02-26T11:06:09;63.65;;;35.45;;
25868;SDS011;13688;53.154;18.136;2024-02-26T11:11:33;63.42;;;35.68;;
25868;SDS011;13688;53.154;18.136;2024-02-26T11:16:59;60.05;;;35.00;;
25868;SDS011;13688;53.154;18.136;2024-02-26T11:22:27;59.58;;;33.10;;
25868;SDS011;13688;53.154;18.136;2024-02-26T11:27:55;59.25;;;34.55;;
25868;SDS011;13688;53.154;18.136;2024-02-26T11:33:23;57.88;;;32.45;;
25868;SDS011;13688;53.154;18.136;2024-02-26T11:38:48;53.85;;;32.03;;
25868;SDS011;13688;53.154;18.136;2024-02-26T11:44:11;57.08;;;32.58;;
25868;SDS011;13688;53.154;18.136;2024-02-26T11:49:49;61.10;;;35.03;;
25868;SDS011;13688;53.154;18.136;2024-02-26T11:55:14;64.32;;;35.35;;
25868;SDS011;13688;53.154;18.136;2024-02-26T12:00:42;56.63;;;35.63;;
25868;SDS011;13688;53.154;18.136;2024-02-26T12:06:06;55.00;;;31.37;;
25868;SDS011;13688;53.154;18.136;2024-02-26T12:11:29;46.70;;;27.50;;
25868;SDS011;13688;53.154;18.136;2024-02-26T12:16:56;43.60;;;26.00;;
25868;SDS011;13688;53.154;18.136;2024-02-26T12:22:21;44.40;;;24.47;;
25868;SDS011;13688;53.154;18.136;2024-02-26T12:27:44;51.20;;;28.80;;
25868;SDS011;13688;53.154;18.136;2024-02-26T12:33:08;51.02;;;27.73;;
25868;SDS011;13688;53.154;18.136;2024-02-26T12:38:32;42.90;;;26.43;;
25868;SDS011;13688;53.154;18.136;2024-02-26T12:43:56;44.30;;;26.50;;
25868;SDS011;13688;53.154;18.136;2024-02-26T12:49:19;42.85;;;26.10;;
25868;SDS011;13688;53.154;18.136;2024-02-26T12:54:44;68.07;;;41.45;;
25868;SDS011;13688;53.154;18.136;2024-02-26T13:00:07;37.83;;;21.70;;
25868;SDS011;13688;53.154;18.136;2024-02-26T13:05:34;41.68;;;23.47;;
25868;SDS011;13688;53.154;18.136;2024-02-26T13:10:58;37.98;;;22.73;;
25868;SDS011;13688;53.154;18.136;2024-02-26T13:16:23;38.48;;;22.52;;
25868;SDS011;13688;53.154;18.136;2024-02-26T13:21:46;38.38;;;23.25;;
25868;SDS011;13688;53.154;18.136;2024-02-26T13:27:20;41.67;;;23.53;;
25868;SDS011;13688;53.154;18.136;2024-02-26T13:32:41;36.45;;;21.55;;
25868;SDS011;13688;53.154;18.136;2024-02-26T13:38:05;34.88;;;21.85;;
25868;SDS011;13688;53.154;18.136;2024-02-26T13:43:29;30.92;;;20.43;;
25868;SDS011;13688;53.154;18.136;2024-02-26T13:48:54;32.85;;;20.45;;
25868;SDS011;13688;53.154;18.136;2024-02-26T13:54:19;33.67;;;20.37;;
25868;SDS011;13688;53.154;18.136;2024-02-26T13:59:44;31.55;;;19.15;;
25868;SDS011;13688;53.154;18.136;2024-02-26T14:05:08;29.75;;;18.98;;
25868;SDS011;13688;53.154;18.136;2024-02-26T14:10:31;30.50;;;18.82;;
25868;SDS011;13688;53.154;18.136;2024-02-26T14:15:53;27.48;;;17.32;;
25868;SDS011;13688;53.154;18.136;2024-02-26T14:21:17;23.67;;;15.15;;
25868;SDS011;13688;53.154;18.136;2024-02-26T14:26:41;25.68;;;14.95;;
25868;SDS011;13688;53.154;18.136;2024-02-26T14:32:04;22.17;;;13.95;;
25868;SDS011;13688;53.154;18.136;2024-02-26T14:37:27;39.25;;;22.02;;
25868;SDS011;13688;53.154;18.136;2024-02-26T14:42:54;29.57;;;15.58;;
25868;SDS011;13688;53.154;18.136;2024-02-26T14:48:16;26.85;;;15.20;;
25868;SDS011;13688;53.154;18.136;2024-02-26T14:53:40;23.87;;;14.90;;
25868;SDS011;13688;53.154;18.136;2024-02-26T14:59:05;23.98;;;13.45;;
25868;SDS011;13688;53.154;18.136;2024-02-26T15:04:29;21.77;;;12.63;;
25868;SDS011;13688;53.154;18.136;2024-02-26T15:09:52;20.00;;;12.78;;
25868;SDS011;13688;53.154;18.136;2024-02-26T15:15:15;27.50;;;13.68;;
25868;SDS011;13688;53.154;18.136;2024-02-26T15:20:38;24.40;;;14.28;;
25868;SDS011;13688;53.154;18.136;2024-02-26T15:26:02;22.15;;;13.53;;
25868;SDS011;13688;53.154;18.136;2024-02-26T15:31:25;23.75;;;13.93;;
25868;SDS011;13688;53.154;18.136;2024-02-26T15:36:48;22.93;;;14.45;;
25868;SDS011;13688;53.154;18.136;2024-02-26T15:42:13;44.30;;;27.85;;
25868;SDS011;13688;53.154;18.136;2024-02-26T15:47:35;24.50;;;13.38;;
25868;SDS011;13688;53.154;18.136;2024-02-26T15:52:58;23.00;;;13.20;;
25868;SDS011;13688;53.154;18.136;2024-02-26T15:58:21;26.23;;;13.60;;
25868;SDS011;13688;53.154;18.136;2024-02-26T16:03:44;26.60;;;15.63;;
25868;SDS011;13688;53.154;18.136;2024-02-26T16:09:07;31.50;;;17.48;;
25868;SDS011;13688;53.154;18.136;2024-02-26T16:20:03;32.98;;;18.65;;
25868;SDS011;13688;53.154;18.136;2024-02-26T16:25:32;34.40;;;19.47;;
25868;SDS011;13688;53.154;18.136;2024-02-26T16:30:55;35.85;;;19.23;;
25868;SDS011;13688;53.154;18.136;2024-02-26T16:36:18;34.48;;;20.77;;
25868;SDS011;13688;53.154;18.136;2024-02-26T16:41:41;31.73;;;19.65;;
25868;SDS011;13688;53.154;18.136;2024-02-26T16:47:05;32.45;;;18.35;;
25868;SDS011;13688;53.154;18.136;2024-02-26T16:52:28;36.70;;;19.02;;
25868;SDS011;13688;53.154;18.136;2024-02-26T16:57:54;37.60;;;20.00;;
25868;SDS011;13688;53.154;18.136;2024-02-26T17:03:18;41.42;;;24.55;;
25868;SDS011;13688;53.154;18.136;2024-02-26T17:08:42;36.17;;;20.77;;
25868;SDS011;13688;53.154;18.136;2024-02-26T17:14:07;40.23;;;21.15;;
25868;SDS011;13688;53.154;18.136;2024-02-26T17:19:30;43.23;;;24.12;;
25868;SDS011;13688;53.154;18.136;2024-02-26T17:24:58;40.43;;;24.47;;
25868;SDS011;13688;53.154;18.136;2024-02-26T17:30:22;42.93;;;25.62;;
25868;SDS011;13688;53.154;18.136;2024-02-26T17:35:45;44.93;;;24.92;;
25868;SDS011;13688;53.154;18.136;2024-02-26T17:41:08;41.70;;;23.98;;
25868;SDS011;13688;53.154;18.136;2024-02-26T17:46:32;42.53;;;23.90;;
25868;SDS011;13688;53.154;18.136;2024-02-26T17:51:55;40.10;;;24.27;;
25868;SDS011;13688;53.154;18.136;2024-02-26T17:57:17;44.58;;;24.37;;
25868;SDS011;13688;53.154;18.136;2024-02-26T18:02:40;42.15;;;23.92;;
25868;SDS011;13688;53.154;18.136;2024-02-26T18:08:15;51.00;;;26.90;;
25868;SDS011;13688;53.154;18.136;2024-02-26T18:13:38;44.60;;;26.05;;
25868;SDS011;13688;53.154;18.136;2024-02-26T18:19:01;44.43;;;24.30;;
25868;SDS011;13688;53.154;18.136;2024-02-26T18:24:24;44.85;;;24.85;;
25868;SDS011;13688;53.154;18.136;2024-02-26T18:29:47;47.58;;;24.80;;
25868;SDS011;13688;53.154;18.136;2024-02-26T18:35:10;43.70;;;24.95;;
25868;SDS011;13688;53.154;18.136;2024-02-26T18:40:33;43.77;;;24.40;;
25868;SDS011;13688;53.154;18.136;2024-02-26T18:45:56;47.83;;;30.05;;
25868;SDS011;13688;53.154;18.136;2024-02-26T18:51:18;43.60;;;24.72;;
25868;SDS011;13688;53.154;18.136;2024-02-26T18:56:42;43.63;;;25.13;;
25868;SDS011;13688;53.154;18.136;2024-02-26T19:02:05;43.08;;;24.77;;
25868;SDS011;13688;53.154;18.136;2024-02-26T19:07:30;38.95;;;24.00;;
25868;SDS011;13688;53.154;18.136;2024-02-26T19:12:54;38.55;;;24.07;;
25868;SDS011;13688;53.154;18.136;2024-02-26T19:18:17;40.53;;;23.77;;
25868;SDS011;13688;53.154;18.136;2024-02-26T19:23:42;44.80;;;26.00;;
25868;SDS011;13688;53.154;18.136;2024-02-26T19:29:07;44.03;;;25.05;;
25868;SDS011;13688;53.154;18.136;2024-02-26T19:34:29;43.00;;;24.50;;
25868;SDS011;13688;53.154;18.136;2024-02-26T19:39:52;53.75;;;30.70;;
25868;SDS011;13688;53.154;18.136;2024-02-26T19:45:15;43.17;;;25.70;;
25868;SDS011;13688;53.154;18.136;2024-02-26T19:50:38;40.88;;;24.45;;
25868;SDS011;13688;53.154;18.136;2024-02-26T19:56:01;40.80;;;24.85;;
25868;SDS011;13688;53.154;18.136;2024-02-26T20:01:25;45.58;;;26.85;;
25868;SDS011;13688;53.154;18.136;2024-02-26T20:06:47;39.83;;;25.12;;
25868;SDS011;13688;53.154;18.136;2024-02-26T20:12:10;38.83;;;24.82;;
25868;SDS011;13688;53.154;18.136;2024-02-26T20:17:33;43.60;;;25.40;;
25868;SDS011;13688;53.154;18.136;2024-02-26T20:22:56;42.80;;;25.95;;
25868;SDS011;13688;53.154;18.136;2024-02-26T20:28:18;43.40;;;25.97;;
25868;SDS011;13688;53.154;18.136;2024-02-26T20:33:40;45.63;;;26.57;;
25868;SDS011;13688;53.154;18.136;2024-02-26T20:39:05;45.40;;;26.62;;
25868;SDS011;13688;53.154;18.136;2024-02-26T20:44:28;44.40;;;25.72;;
25868;SDS011;13688;53.154;18.136;2024-02-26T20:49:52;44.38;;;27.05;;
25868;SDS011;13688;53.154;18.136;2024-02-26T20:55:16;44.70;;;27.87;;
25868;SDS011;13688;53.154;18.136;2024-02-26T21:00:38;49.42;;;27.67;;
25868;SDS011;13688;53.154;18.136;2024-02-26T21:06:01;46.53;;;28.45;;
25868;SDS011;13688;53.154;18.136;2024-02-26T21:11:23;54.67;;;33.55;;
25868;SDS011;13688;53.154;18.136;2024-02-26T21:16:47;49.55;;;28.85;;
25868;SDS011;13688;53.154;18.136;2024-02-26T21:22:09;48.93;;;28.40;;
25868;SDS011;13688;53.154;18.136;2024-02-26T21:27:32;50.10;;;28.77;;
25868;SDS011;13688;53.154;18.136;2024-02-26T21:32:54;47.83;;;28.90;;
25868;SDS011;13688;53.154;18.136;2024-02-26T21:38:17;49.08;;;28.38;;
25868;SDS011;13688;53.154;18.136;2024-02-26T21:43:41;46.80;;;29.60;;
25868;SDS011;13688;53.154;18.136;2024-02-26T21:49:05;43.45;;;26.75;;
25868;SDS011;13688;53.154;18.136;2024-02-26T21:54:32;44.13;;;28.10;;
25868;SDS011;13688;53.154;18.136;2024-02-26T21:59:59;48.52;;;28.83;;
25868;SDS011;13688;53.154;18.136;2024-02-26T22:05:23;44.55;;;28.77;;
25868;SDS011;13688;53.154;18.136;2024-02-26T22:10:45;50.75;;;29.05;;
25868;SDS011;13688;53.154;18.136;2024-02-26T22:16:09;47.50;;;29.02;;
25868;SDS011;13688;53.154;18.136;2024-02-26T22:21:32;47.27;;;29.25;;
25868;SDS011;13688;53.154;18.136;2024-02-26T22:26:56;48.33;;;29.25;;
25868;SDS011;13688;53.154;18.136;2024-02-26T22:32:19;48.38;;;28.98;;
25868;SDS011;13688;53.154;18.136;2024-02-26T22:37:41;48.08;;;28.32;;
25868;SDS011;13688;53.154;18.136;2024-02-26T22:43:04;48.33;;;29.15;;
25868;SDS011;13688;53.154;18.136;2024-02-26T22:48:26;45.33;;;29.60;;
25868;SDS011;13688;53.154;18.136;2024-02-26T22:53:49;47.88;;;29.27;;
25868;SDS011;13688;53.154;18.136;2024-02-26T22:59:11;46.98;;;30.50;;
25868;SDS011;13688;53.154;18.136;2024-02-26T23:04:36;48.87;;;29.12;;
25868;SDS011;13688;53.154;18.136;2024-02-26T23:09:58;48.92;;;30.48;;
25868;SDS011;13688;53.154;18.136;2024-02-26T23:15:21;48.85;;;30.43;;
25868;SDS011;13688;53.154;18.136;2024-02-26T23:20:43;46.65;;;29.57;;
25868;SDS011;13688;53.154;18.136;2024-02-26T23:26:06;49.67;;;30.45;;
25868;SDS011;13688;53.154;18.136;2024-02-26T23:31:29;45.98;;;29.20;;
25868;SDS011;13688;53.154;18.136;2024-02-26T23:36:52;51.00;;;30.75;;
25868;SDS011;13688;53.154;18.136;2024-02-26T23:42:14;54.40;;;32.13;;
25868;SDS011;13688;53.154;18.136;2024-02-26T23:47:37;48.30;;;30.05;;
25868;SDS011;13688;53.154;18.136;2024-02-26T23:53:00;48.58;;;30.27;;
25868;SDS011;13688;53.154;18.136;2024-02-26T23:58:22;55.88;;;31.05;;
